createdAt,value
2023-05-17T00:01:42.672Z,8.88
2023-05-17T00:04:10.627Z,8.45
2023-05-17T00:06:39.579Z,9.48
2023-05-17T00:09:07.431Z,9.32
2023-05-17T00:11:35.184Z,8.88
2023-05-17T00:14:02.904Z,8.10
2023-05-17T00:16:30.392Z,8.98
2023-05-17T00:18:58.113Z,8.05
2023-05-17T00:21:25.673Z,7.43
2023-05-17T00:23:55.311Z,7.75
2023-05-17T00:26:25.774Z,7.45
2023-05-17T00:28:53.656Z,7.45
2023-05-17T00:31:21.039Z,7.72
2023-05-17T00:33:48.866Z,6.90
2023-05-17T00:36:16.456Z,7.35
2023-05-17T00:38:44.116Z,6.82
2023-05-17T00:41:13.126Z,6.32
2023-05-17T00:43:40.944Z,6.70
2023-05-17T00:46:08.380Z,6.95
2023-05-17T00:48:36.400Z,6.95
2023-05-17T00:51:04.060Z,7.65
2023-05-17T00:53:32.388Z,7.32
2023-05-17T00:56:00.305Z,7.82
2023-05-17T00:58:30.211Z,7.20
2023-05-17T01:00:59.721Z,7.88
2023-05-17T01:03:28.207Z,7.57
2023-05-17T01:05:56.062Z,7.10
2023-05-17T01:08:23.940Z,6.97
2023-05-17T01:10:59.724Z,7.03
2023-05-17T01:13:33.952Z,6.40
2023-05-17T01:16:10.722Z,7.47
2023-05-17T01:18:45.022Z,7.63
2023-05-17T01:21:28.215Z,6.63
2023-05-17T01:24:03.662Z,6.88
2023-05-17T01:26:38.804Z,7.60
2023-05-17T01:29:09.216Z,7.05
2023-05-17T01:31:37.338Z,7.38
2023-05-17T01:34:07.580Z,7.28
2023-05-17T01:36:35.169Z,7.85
2023-05-17T01:39:03.001Z,7.88
2023-05-17T01:41:36.951Z,7.72
2023-05-17T01:44:14.822Z,7.90
2023-05-17T01:46:43.130Z,7.97
2023-05-17T01:49:16.539Z,7.88
2023-05-17T01:51:48.022Z,7.70
2023-05-17T01:54:21.794Z,8.73
2023-05-17T01:56:55.688Z,6.68
2023-05-17T01:59:25.519Z,6.90
2023-05-17T02:01:55.818Z,6.50
2023-05-17T02:04:23.678Z,6.63
2023-05-17T02:06:51.230Z,6.45
2023-05-17T02:09:18.982Z,5.20
2023-05-17T02:11:46.296Z,5.03
2023-05-17T02:14:15.315Z,5.30
2023-05-17T02:16:44.238Z,4.97
2023-05-17T02:19:11.913Z,4.60
2023-05-17T02:21:39.412Z,4.43
2023-05-17T02:24:07.289Z,4.68
2023-05-17T02:26:35.026Z,4.97
2023-05-17T02:29:02.896Z,4.60
2023-05-17T02:31:30.249Z,4.05
2023-05-17T02:33:59.578Z,4.80
2023-05-17T02:36:26.998Z,3.65
2023-05-17T02:38:54.856Z,3.90
2023-05-17T02:41:22.211Z,4.13
2023-05-17T02:43:49.836Z,4.10
2023-05-17T02:46:17.143Z,4.22
2023-05-17T02:48:44.932Z,3.40
2023-05-17T02:51:13.650Z,3.50
2023-05-17T02:53:41.457Z,3.47
2023-05-17T02:56:08.815Z,3.25
2023-05-17T02:58:36.611Z,3.47
2023-05-17T03:01:04.060Z,3.28
2023-05-17T03:03:32.482Z,2.95
2023-05-17T03:06:00.894Z,3.38
2023-05-17T03:08:30.176Z,3.20
2023-05-17T03:10:57.678Z,3.20
2023-05-17T03:13:25.587Z,2.95
2023-05-17T03:15:52.877Z,3.58
2023-05-17T03:18:20.611Z,2.75
2023-05-17T03:20:48.023Z,3.63
2023-05-17T03:23:15.801Z,2.47
2023-05-17T03:25:44.530Z,2.55
2023-05-17T03:28:12.254Z,2.47
2023-05-17T03:30:39.869Z,2.60
2023-05-17T03:33:07.785Z,2.78
2023-05-17T03:35:35.223Z,2.50
2023-05-17T03:38:03.066Z,1.95
2023-05-17T03:40:30.542Z,2.55
2023-05-17T03:42:59.912Z,2.40
2023-05-17T03:45:28.086Z,2.38
2023-05-17T03:47:56.304Z,1.70
2023-05-17T03:50:23.638Z,2.40
2023-05-17T03:52:51.440Z,2.00
2023-05-17T03:55:18.838Z,2.08
2023-05-17T03:57:46.662Z,2.35
2023-05-17T04:00:16.406Z,3.10
2023-05-17T04:02:44.164Z,2.03
2023-05-17T04:05:11.820Z,2.17
2023-05-17T04:07:39.654Z,2.38
2023-05-17T04:10:07.448Z,2.03
2023-05-17T04:12:35.287Z,2.05
2023-05-17T04:15:03.566Z,2.90
2023-05-17T04:17:32.837Z,2.38
2023-05-17T04:20:00.209Z,2.83
2023-05-17T04:22:28.131Z,2.20
2023-05-17T04:24:55.438Z,2.35
2023-05-17T04:27:23.328Z,2.33
2023-05-17T04:29:50.815Z,2.20
2023-05-17T04:32:18.537Z,2.38
2023-05-17T04:34:47.424Z,2.47
2023-05-17T04:37:15.147Z,2.10
2023-05-17T04:39:42.656Z,2.20
2023-05-17T04:42:10.856Z,1.92
2023-05-17T04:44:38.209Z,2.00
2023-05-17T04:47:06.137Z,2.00
2023-05-17T04:49:33.430Z,3.05
2023-05-17T04:52:04.658Z,2.60
2023-05-17T04:54:33.319Z,2.50
2023-05-17T04:57:01.053Z,1.92
2023-05-17T04:59:28.402Z,2.00
2023-05-17T05:01:56.139Z,2.10
2023-05-17T05:04:23.869Z,2.08
2023-05-17T05:06:52.106Z,2.20
2023-05-17T05:09:20.875Z,2.00
2023-05-17T05:11:48.599Z,1.65
2023-05-17T05:14:15.857Z,2.13
2023-05-17T05:16:43.936Z,1.88
2023-05-17T05:19:11.521Z,1.73
2023-05-17T05:21:39.508Z,1.83
2023-05-17T05:24:07.756Z,1.73
2023-05-17T05:26:36.965Z,2.03
2023-05-17T05:29:04.446Z,1.65
2023-05-17T05:31:32.165Z,1.73
2023-05-17T05:33:59.388Z,1.98
2023-05-17T05:36:27.197Z,2.35
2023-05-17T05:38:54.971Z,2.25
2023-05-17T05:41:23.210Z,1.60
2023-05-17T05:43:52.138Z,1.60
2023-05-17T05:46:19.864Z,1.60
2023-05-17T05:48:47.306Z,1.60
2023-05-17T05:51:15.228Z,1.70
2023-05-17T05:53:42.666Z,2.00
2023-05-17T05:56:10.400Z,1.98
2023-05-17T05:58:37.866Z,1.65
2023-05-17T06:01:07.106Z,2.05
2023-05-17T06:03:34.440Z,1.95
2023-05-17T06:06:02.428Z,1.98
2023-05-17T06:08:30.006Z,1.52
2023-05-17T06:10:57.803Z,1.80
2023-05-17T06:13:25.320Z,1.80
2023-05-17T06:15:53.081Z,1.50
2023-05-17T06:18:22.100Z,1.55
2023-05-17T06:20:50.047Z,2.10
2023-05-17T06:23:17.490Z,1.65
2023-05-17T06:25:45.314Z,1.98
2023-05-17T06:28:12.724Z,1.38
2023-05-17T06:30:40.533Z,1.92
2023-05-17T06:33:07.961Z,1.70
2023-05-17T06:35:51.734Z,1.85
2023-05-17T06:38:23.647Z,2.03
2023-05-17T06:40:52.384Z,2.65
2023-05-17T06:43:20.054Z,2.08
2023-05-17T06:45:48.144Z,2.03
2023-05-17T06:48:15.752Z,2.00
2023-05-17T06:50:45.060Z,1.92
2023-05-17T06:53:12.661Z,2.30
2023-05-17T06:55:40.365Z,1.98
2023-05-17T06:58:07.715Z,2.25
2023-05-17T07:00:38.109Z,2.63
2023-05-17T07:03:05.725Z,3.40
2023-05-17T07:05:33.935Z,2.03
2023-05-17T07:08:03.335Z,2.78
2023-05-17T07:10:31.016Z,2.50
2023-05-17T07:13:00.071Z,2.50
2023-05-17T07:15:28.131Z,2.42
2023-05-17T07:17:55.915Z,2.20
2023-05-17T07:20:24.147Z,2.83
2023-05-17T07:22:51.398Z,2.40
2023-05-17T07:25:20.707Z,2.70
2023-05-17T07:27:48.126Z,2.53
2023-05-17T07:30:15.796Z,2.63
2023-05-17T07:32:43.279Z,2.35
2023-05-17T07:35:11.097Z,2.22
2023-05-17T07:37:38.649Z,2.45
2023-05-17T07:40:07.850Z,2.67
2023-05-17T07:42:36.688Z,2.65
2023-05-17T07:45:05.262Z,2.67
2023-05-17T07:47:32.775Z,2.50
2023-05-17T07:50:00.619Z,2.67
2023-05-17T07:52:27.962Z,2.50
2023-05-17T07:54:55.698Z,2.55
2023-05-17T07:57:23.137Z,2.90
2023-05-17T07:59:52.289Z,2.63
2023-05-17T08:02:19.474Z,2.10
2023-05-17T08:04:47.341Z,2.47
2023-05-17T08:07:14.700Z,2.00
2023-05-17T08:09:42.408Z,1.90
2023-05-17T08:12:09.861Z,1.95
2023-05-17T08:14:37.585Z,2.00
2023-05-17T08:17:06.534Z,2.15
2023-05-17T08:19:34.625Z,2.20
2023-05-17T08:22:02.146Z,2.17
2023-05-17T08:24:29.866Z,2.10
2023-05-17T08:26:57.310Z,2.10
2023-05-17T08:29:25.036Z,2.40
2023-05-17T08:31:53.650Z,2.40
2023-05-17T08:34:22.824Z,1.83
2023-05-17T08:36:50.234Z,1.95
2023-05-17T08:39:18.004Z,2.30
2023-05-17T08:41:46.856Z,2.17
2023-05-17T08:44:15.741Z,1.90
2023-05-17T08:46:43.970Z,2.53
2023-05-17T08:49:13.324Z,2.10
2023-05-17T08:51:43.223Z,2.40
2023-05-17T08:54:10.912Z,2.70
2023-05-17T08:56:42.588Z,2.28
2023-05-17T08:59:10.492Z,2.20
2023-05-17T09:01:40.674Z,2.15
2023-05-17T09:04:09.388Z,2.67
2023-05-17T09:06:37.102Z,2.03
2023-05-17T09:09:06.364Z,2.70
2023-05-17T09:11:33.689Z,2.15
2023-05-17T09:14:03.034Z,2.85
2023-05-17T09:16:31.057Z,2.80
2023-05-17T09:18:59.625Z,2.22
2023-05-17T09:21:28.422Z,2.22
2023-05-17T09:26:38.114Z,2.30
2023-05-17T09:29:09.365Z,2.42
2023-05-17T09:31:36.752Z,2.38
2023-05-17T09:34:04.649Z,2.83
2023-05-17T09:36:32.068Z,2.40
2023-05-17T09:39:01.187Z,2.15
2023-05-17T09:41:30.847Z,2.30
2023-05-17T09:44:00.253Z,2.30
2023-05-17T09:46:27.599Z,1.90
2023-05-17T09:48:56.161Z,2.20
2023-05-17T09:51:34.001Z,2.28
2023-05-17T09:54:01.878Z,2.55
2023-05-17T09:56:31.524Z,2.03
2023-05-17T09:59:01.422Z,2.20
2023-05-17T10:01:30.395Z,2.15
2023-05-17T10:04:00.238Z,2.15
2023-05-17T10:09:02.409Z,2.80
2023-05-17T10:11:31.753Z,2.85
2023-05-17T10:14:05.553Z,2.50
2023-05-17T10:16:33.992Z,2.30
2023-05-17T10:19:03.182Z,3.08
2023-05-17T10:21:31.522Z,2.72
2023-05-17T10:24:00.234Z,2.63
2023-05-17T10:26:27.937Z,3.35
2023-05-17T10:28:59.492Z,2.58
2023-05-17T10:31:29.389Z,2.35
2023-05-17T10:33:58.316Z,2.00
2023-05-17T10:36:26.062Z,1.60
2023-05-17T10:38:54.703Z,2.85
2023-05-17T10:41:24.490Z,1.95
2023-05-17T10:43:54.538Z,3.05
2023-05-17T10:46:24.492Z,2.40
2023-05-17T10:48:53.569Z,2.03
2023-05-17T10:51:25.293Z,1.90
2023-05-17T10:54:08.480Z,1.98
2023-05-17T10:56:39.037Z,1.75
2023-05-17T10:59:15.296Z,1.85
2023-05-17T11:01:57.971Z,1.70
2023-05-17T11:04:27.714Z,1.75
2023-05-17T11:07:25.548Z,1.92
2023-05-17T11:09:55.767Z,1.83
2023-05-17T11:12:38.496Z,1.77
2023-05-17T11:17:48.299Z,1.85
2023-05-17T11:20:37.491Z,2.03
2023-05-17T11:23:06.715Z,1.60
2023-05-17T11:25:36.252Z,1.92
2023-05-17T11:28:07.909Z,1.60
2023-05-17T11:30:41.497Z,1.58
2023-05-17T11:33:20.568Z,2.05
2023-05-17T11:35:54.804Z,2.17
2023-05-17T11:38:23.292Z,1.60
2023-05-17T11:40:54.195Z,1.80
2023-05-17T11:43:22.394Z,1.58
2023-05-17T11:45:53.405Z,1.60
2023-05-17T11:48:23.826Z,1.95
2023-05-17T11:50:53.693Z,2.47
2023-05-17T11:53:21.520Z,2.00
2023-05-17T11:55:50.327Z,1.88
2023-05-17T11:58:19.467Z,2.15
2023-05-17T12:00:53.197Z,2.08
2023-05-17T12:03:23.496Z,1.70
2023-05-17T12:06:01.276Z,2.00
2023-05-17T12:08:29.194Z,2.17
2023-05-17T12:10:57.620Z,2.47
2023-05-17T12:13:28.721Z,1.70
2023-05-17T12:15:58.353Z,1.90
2023-05-17T12:18:36.612Z,2.47
2023-05-17T12:21:05.084Z,2.08
2023-05-17T12:23:33.964Z,1.88
2023-05-17T12:26:06.916Z,1.73
2023-05-17T12:28:35.106Z,2.53
2023-05-17T12:31:04.141Z,1.65
2023-05-17T12:33:32.718Z,1.70
2023-05-17T12:36:03.056Z,1.65
2023-05-17T12:38:32.178Z,1.90
2023-05-17T12:41:02.054Z,1.60
2023-05-17T12:43:29.877Z,2.13
2023-05-17T12:46:03.985Z,1.85
2023-05-17T12:48:33.025Z,1.80
2023-05-17T12:51:12.178Z,1.90
2023-05-17T12:53:40.950Z,2.03
2023-05-17T12:56:09.572Z,1.92
2023-05-17T12:58:36.938Z,1.95
2023-05-17T13:01:04.987Z,1.83
2023-05-17T13:03:33.109Z,1.52
2023-05-17T13:06:07.998Z,2.47
2023-05-17T13:08:35.735Z,2.00
2023-05-17T13:11:11.290Z,2.80
2023-05-17T13:13:38.681Z,1.98
2023-05-17T13:16:07.514Z,1.85
2023-05-17T13:18:48.850Z,2.22
2023-05-17T13:21:19.621Z,2.10
2023-05-17T13:23:48.798Z,2.70
2023-05-17T13:26:17.519Z,2.25
2023-05-17T13:28:45.930Z,1.75
2023-05-17T13:31:14.567Z,2.33
2023-05-17T13:33:42.117Z,2.25
2023-05-17T13:36:10.109Z,1.90
2023-05-17T13:38:38.853Z,1.88
2023-05-17T13:41:06.359Z,1.75
2023-05-17T13:43:34.101Z,1.95
2023-05-17T13:46:01.689Z,2.00
2023-05-17T13:48:29.589Z,2.30
2023-05-17T13:50:57.182Z,2.45
2023-05-17T13:53:24.924Z,2.08
2023-05-17T13:55:53.671Z,2.72
2023-05-17T13:58:21.389Z,3.17
2023-05-17T14:00:49.554Z,2.70
2023-05-17T14:03:17.615Z,3.90
2023-05-17T14:05:45.179Z,2.50
2023-05-17T14:08:13.018Z,2.45
2023-05-17T14:10:40.482Z,2.47
2023-05-17T14:13:09.892Z,2.20
2023-05-17T14:15:37.358Z,2.20
2023-05-17T14:18:05.857Z,2.38
2023-05-17T14:20:33.921Z,2.33
2023-05-17T14:23:01.858Z,2.75
2023-05-17T14:25:29.551Z,2.00
2023-05-17T14:27:57.406Z,1.80
2023-05-17T14:30:26.305Z,2.40
2023-05-17T14:32:54.401Z,2.10
2023-05-17T14:35:22.084Z,2.20
2023-05-17T14:37:49.921Z,1.98
2023-05-17T14:40:17.325Z,2.50
2023-05-17T14:42:45.064Z,2.17
2023-05-17T14:45:12.458Z,2.13
2023-05-17T14:47:41.712Z,2.00
2023-05-17T14:50:09.984Z,2.10
2023-05-17T14:52:37.841Z,2.15
2023-05-17T14:55:06.316Z,2.40
2023-05-17T14:57:34.263Z,2.90
2023-05-17T15:00:01.800Z,2.40
2023-05-17T15:02:29.590Z,2.45
2023-05-17T15:04:58.599Z,2.10
2023-05-17T15:07:26.553Z,2.47
2023-05-17T15:09:53.837Z,2.28
2023-05-17T15:12:21.796Z,2.45
2023-05-17T15:14:49.226Z,2.47
2023-05-17T15:17:16.997Z,2.58
2023-05-17T15:19:44.584Z,2.30
2023-05-17T15:22:14.044Z,2.35
2023-05-17T15:24:41.446Z,2.40
2023-05-17T15:27:10.114Z,2.65
2023-05-17T15:29:37.668Z,2.10
2023-05-17T15:32:05.731Z,2.35
2023-05-17T15:34:33.275Z,2.33
2023-05-17T15:37:01.247Z,2.05
2023-05-17T15:39:30.357Z,2.35
2023-05-17T15:41:58.231Z,1.95
2023-05-17T15:44:25.672Z,2.63
2023-05-17T15:46:53.463Z,1.90
2023-05-17T15:49:21.171Z,2.85
2023-05-17T15:51:48.941Z,2.00
2023-05-17T15:54:16.353Z,2.38
2023-05-17T15:56:45.554Z,2.35
2023-05-17T15:59:12.837Z,2.28
2023-05-17T16:01:41.377Z,2.38
2023-05-17T16:04:08.794Z,2.20
2023-05-17T16:06:36.704Z,2.97
2023-05-17T16:09:04.341Z,2.60
2023-05-17T16:11:32.300Z,2.58
2023-05-17T16:14:01.307Z,2.33
2023-05-17T16:16:29.116Z,2.33
2023-05-17T16:18:56.682Z,2.28
2023-05-17T16:21:24.593Z,2.17
2023-05-17T16:23:52.029Z,2.47
2023-05-17T16:26:19.695Z,1.88
2023-05-17T16:28:47.129Z,2.17
2023-05-17T16:31:16.610Z,1.80
2023-05-17T16:33:44.086Z,2.30
2023-05-17T16:36:11.874Z,2.40
2023-05-17T16:38:39.325Z,1.92
2023-05-17T16:41:07.218Z,1.70
2023-05-17T16:43:34.539Z,1.83
2023-05-17T16:46:02.493Z,1.73
2023-05-17T16:48:31.328Z,1.45
2023-05-17T16:50:59.074Z,1.70
2023-05-17T16:53:26.524Z,1.60
2023-05-17T16:55:54.227Z,2.00
2023-05-17T16:58:21.699Z,1.92
2023-05-17T17:00:49.517Z,2.33
2023-05-17T17:03:17.014Z,2.28
2023-05-17T17:05:46.484Z,2.10
2023-05-17T17:08:13.881Z,2.58
2023-05-17T17:10:41.765Z,2.65
2023-05-17T17:13:09.267Z,2.33
2023-05-17T17:15:36.982Z,2.90
2023-05-17T17:18:04.616Z,2.53
2023-05-17T17:20:32.514Z,2.75
2023-05-17T17:23:01.508Z,2.70
2023-05-17T17:25:29.478Z,2.60
2023-05-17T17:27:56.858Z,2.00
2023-05-17T17:30:24.757Z,1.90
2023-05-17T17:32:52.318Z,1.83
2023-05-17T17:35:20.577Z,2.65
2023-05-17T17:37:47.961Z,1.85
2023-05-17T17:40:17.351Z,2.05
2023-05-17T17:42:44.788Z,2.42
2023-05-17T17:45:12.674Z,2.13
2023-05-17T17:47:40.111Z,2.22
2023-05-17T17:50:09.064Z,2.60
2023-05-17T17:52:36.561Z,3.20
2023-05-17T17:55:05.279Z,3.67
2023-05-17T17:57:34.087Z,4.60
2023-05-17T18:00:01.862Z,5.90
2023-05-17T18:02:29.324Z,6.03
2023-05-17T18:04:57.157Z,5.55
2023-05-17T18:07:24.689Z,5.90
2023-05-17T18:09:52.686Z,4.90
2023-05-17T18:12:20.047Z,4.38
2023-05-17T18:14:49.256Z,3.45
2023-05-17T18:17:16.655Z,2.90
2023-05-17T18:19:44.401Z,3.67
2023-05-17T18:22:11.868Z,3.40
2023-05-17T18:24:39.620Z,2.53
2023-05-17T18:27:07.080Z,2.80
2023-05-17T18:29:34.906Z,3.22
2023-05-17T18:32:04.137Z,1.88
2023-05-17T18:34:32.142Z,2.35
2023-05-17T18:36:59.609Z,2.40
2023-05-17T18:39:27.972Z,2.50
2023-05-17T18:41:55.379Z,2.30
2023-05-17T18:44:23.304Z,2.75
2023-05-17T18:46:51.156Z,2.08
2023-05-17T18:49:20.354Z,3.20
2023-05-17T18:51:47.996Z,2.60
2023-05-17T18:54:15.949Z,2.55
2023-05-17T18:56:43.443Z,2.40
2023-05-17T18:59:11.320Z,2.33
2023-05-17T19:01:38.732Z,3.38
2023-05-17T19:04:06.597Z,5.75
2023-05-17T19:06:35.591Z,4.68
2023-05-17T19:09:03.662Z,3.28
2023-05-17T19:11:31.189Z,4.20
2023-05-17T19:13:58.980Z,3.28
2023-05-17T19:16:26.461Z,3.25
2023-05-17T19:18:54.325Z,3.30
2023-05-17T19:21:22.368Z,3.47
2023-05-17T19:23:51.658Z,4.15
2023-05-17T19:26:19.079Z,2.90
2023-05-17T19:28:46.800Z,3.38
2023-05-17T19:31:14.318Z,2.33
2023-05-17T19:33:42.185Z,2.78
2023-05-17T19:36:09.914Z,3.08
2023-05-17T19:38:37.725Z,3.00
2023-05-17T19:41:07.000Z,2.80
2023-05-17T19:43:34.867Z,2.88
2023-05-17T19:46:03.088Z,2.90
2023-05-17T19:48:30.844Z,3.03
2023-05-17T19:50:58.297Z,3.55
2023-05-17T19:53:26.652Z,2.92
2023-05-17T19:55:54.277Z,3.05
2023-05-17T19:58:23.572Z,3.58
2023-05-17T20:00:51.062Z,3.80
2023-05-17T20:03:19.041Z,3.95
2023-05-17T20:05:46.596Z,4.97
2023-05-17T20:08:14.526Z,6.30
2023-05-17T20:10:42.368Z,4.70
2023-05-17T20:13:10.214Z,3.78
2023-05-17T20:15:39.094Z,5.68
2023-05-17T20:18:06.881Z,8.07
2023-05-17T20:20:34.360Z,5.78
2023-05-17T20:23:02.208Z,6.25
2023-05-17T20:25:29.844Z,7.85
2023-05-17T20:27:57.519Z,8.32
2023-05-17T20:30:25.007Z,5.75
2023-05-17T20:32:54.344Z,5.88
2023-05-17T20:35:21.868Z,4.20
2023-05-17T20:37:49.571Z,4.25
2023-05-17T20:40:17.146Z,4.28
2023-05-17T20:42:44.932Z,4.68
2023-05-17T20:45:14.491Z,4.15
2023-05-17T20:47:42.712Z,5.50
2023-05-17T20:50:11.881Z,3.90
2023-05-17T20:52:40.110Z,4.18
2023-05-17T20:55:09.077Z,4.18
2023-05-17T20:57:37.006Z,4.13
2023-05-17T21:00:05.158Z,4.63
2023-05-17T21:02:33.038Z,4.63
2023-05-17T21:05:00.625Z,4.88
2023-05-17T21:07:29.849Z,4.28
2023-05-17T21:09:57.278Z,4.68
2023-05-17T21:12:25.033Z,3.80
2023-05-17T21:15:07.867Z,3.80
2023-05-17T21:17:40.348Z,3.50
2023-05-17T21:20:08.640Z,3.80
2023-05-17T21:22:37.950Z,3.53
2023-05-17T21:25:06.118Z,3.17
2023-05-17T21:27:33.877Z,3.58
2023-05-17T21:30:01.511Z,4.22
2023-05-17T21:32:29.249Z,3.83
2023-05-17T21:34:56.671Z,4.15
2023-05-17T21:37:24.653Z,3.35
2023-05-17T21:39:53.549Z,3.05
2023-05-17T21:42:21.376Z,3.15
2023-05-17T21:44:48.739Z,3.03
2023-05-17T21:47:16.578Z,2.75
2023-05-17T21:49:43.946Z,3.67
2023-05-17T21:52:11.649Z,3.92
2023-05-17T21:54:38.979Z,3.42
2023-05-17T21:57:08.346Z,4.32
2023-05-17T21:59:36.084Z,3.53
2023-05-17T22:02:04.052Z,2.90
2023-05-17T22:04:31.349Z,3.58
2023-05-17T22:06:59.146Z,3.15
2023-05-17T22:09:26.506Z,2.85
2023-05-17T22:11:54.307Z,3.60
2023-05-17T22:14:23.163Z,3.00
2023-05-17T22:16:50.991Z,2.58
2023-05-17T22:19:18.513Z,2.85
2023-05-17T22:21:46.379Z,2.85
2023-05-17T22:24:15.634Z,3.15
2023-05-17T22:26:43.380Z,3.05
2023-05-17T22:29:10.831Z,2.60
2023-05-17T22:31:40.039Z,2.65
2023-05-17T22:34:07.437Z,2.95
2023-05-17T22:36:35.303Z,3.13
2023-05-17T22:39:02.617Z,3.03
2023-05-17T22:41:30.317Z,2.88
2023-05-17T22:43:57.661Z,3.10
2023-05-17T22:46:25.571Z,3.22
2023-05-17T22:48:54.425Z,3.63
2023-05-17T22:51:22.240Z,2.78
2023-05-17T22:53:49.761Z,3.17
2023-05-17T22:56:17.567Z,2.88
2023-05-17T22:58:44.954Z,3.33
2023-05-17T23:01:14.126Z,2.70
2023-05-17T23:03:41.807Z,2.42
2023-05-17T23:06:11.119Z,3.10
2023-05-17T23:08:38.584Z,2.80
2023-05-17T23:11:06.384Z,2.63
2023-05-17T23:13:33.683Z,2.97
2023-05-17T23:16:01.464Z,2.92
2023-05-17T23:18:28.829Z,2.58
2023-05-17T23:20:56.644Z,2.80
2023-05-17T23:23:25.510Z,2.70
2023-05-17T23:25:53.141Z,3.55
2023-05-17T23:28:20.538Z,3.05
2023-05-17T23:30:48.338Z,2.55
2023-05-17T23:37:06.398Z,3.08
2023-05-17T23:39:35.510Z,2.55
2023-05-17T23:42:02.933Z,3.13
2023-05-17T23:44:30.664Z,2.83
2023-05-17T23:46:58.066Z,2.55
2023-05-17T23:49:25.927Z,2.80
2023-05-17T23:51:53.488Z,2.47
2023-05-17T23:54:21.365Z,2.70
2023-05-17T23:56:50.344Z,2.95
2023-05-17T23:59:18.183Z,2.40
